createdAt,value
2018-09-28T00:00:24.848Z,14.62
2018-09-28T00:02:53.358Z,14.73
2018-09-28T00:05:21.888Z,14.81
2018-09-28T00:07:50.398Z,14.83
2018-09-28T00:10:18.927Z,14.87
2018-09-28T00:12:47.507Z,14.90
2018-09-28T00:15:16.066Z,14.95
2018-09-28T00:17:44.565Z,14.98
2018-09-28T00:20:13.114Z,15.01
2018-09-28T00:22:41.617Z,15.02
2018-09-28T00:25:10.145Z,15.02
2018-09-28T00:27:38.650Z,15.04
2018-09-28T00:30:07.458Z,15.08
2018-09-28T00:32:35.987Z,15.13
2018-09-28T00:35:04.641Z,15.16
2018-09-28T00:37:33.147Z,15.17
2018-09-28T00:40:01.665Z,15.06
2018-09-28T00:42:30.183Z,14.90
2018-09-28T00:44:58.706Z,14.71
2018-09-28T00:47:27.213Z,14.56
2018-09-28T00:49:55.785Z,14.48
2018-09-28T00:52:24.300Z,14.44
2018-09-28T00:54:52.813Z,14.45
2018-09-28T00:57:21.337Z,14.48
2018-09-28T00:59:49.839Z,14.50
2018-09-28T01:02:18.362Z,14.50
2018-09-28T01:04:46.863Z,14.50
2018-09-28T01:07:15.393Z,14.49
2018-09-28T01:09:43.896Z,14.52
2018-09-28T01:12:12.431Z,14.51
2018-09-28T01:14:40.935Z,14.54
2018-09-28T01:17:09.479Z,14.61
2018-09-28T01:19:37.984Z,14.66
2018-09-28T01:22:06.516Z,14.68
2018-09-28T01:24:35.004Z,14.67
2018-09-28T01:27:03.528Z,14.69
2018-09-28T01:29:32.055Z,14.68
2018-09-28T01:32:00.592Z,14.71
2018-09-28T01:34:29.085Z,14.75
2018-09-28T01:36:57.602Z,14.74
2018-09-28T01:39:26.094Z,14.77
2018-09-28T01:41:54.613Z,14.74
2018-09-28T01:44:23.102Z,14.71
2018-09-28T01:46:51.623Z,14.71
2018-09-28T01:49:20.132Z,14.71
2018-09-28T01:51:48.653Z,14.69
2018-09-28T01:54:17.150Z,14.74
2018-09-28T01:56:45.671Z,14.71
2018-09-28T01:59:14.175Z,14.69
2018-09-28T02:01:42.693Z,14.63
2018-09-28T02:04:11.177Z,14.61
2018-09-28T02:06:39.703Z,14.60
2018-09-28T02:09:08.612Z,14.52
2018-09-28T02:11:37.122Z,14.44
2018-09-28T02:14:05.631Z,14.35
2018-09-28T02:16:34.152Z,14.27
2018-09-28T02:19:02.668Z,14.22
2018-09-28T02:21:31.223Z,14.26
2018-09-28T02:23:59.719Z,14.29
2018-09-28T02:26:28.238Z,14.32
2018-09-28T02:28:56.731Z,14.31
2018-09-28T02:31:25.247Z,14.33
2018-09-28T02:33:53.761Z,14.34
2018-09-28T02:36:22.281Z,14.32
2018-09-28T02:38:50.812Z,14.28
2018-09-28T02:41:19.327Z,14.30
2018-09-28T02:43:47.838Z,14.30
2018-09-28T02:46:16.355Z,14.27
2018-09-28T02:48:44.850Z,14.16
2018-09-28T02:51:13.387Z,13.98
2018-09-28T02:53:41.906Z,13.85
2018-09-28T02:56:10.401Z,13.72
2018-09-28T02:58:38.924Z,13.66
2018-09-28T03:01:07.663Z,13.63
2018-09-28T03:03:36.222Z,13.58
2018-09-28T03:06:04.788Z,13.56
2018-09-28T03:08:33.312Z,13.51
2018-09-28T03:11:01.808Z,13.49
2018-09-28T03:13:30.349Z,13.45
2018-09-28T03:15:58.847Z,13.44
2018-09-28T03:18:27.374Z,13.33
2018-09-28T03:20:55.862Z,13.25
2018-09-28T03:23:24.388Z,13.11
2018-09-28T03:25:53.035Z,12.97
2018-09-28T03:28:21.546Z,12.85
2018-09-28T03:30:50.055Z,12.74
2018-09-28T03:33:18.626Z,12.64
2018-09-28T03:35:47.138Z,12.54
2018-09-28T03:38:15.702Z,12.51
2018-09-28T03:40:44.277Z,12.46
2018-09-28T03:43:12.769Z,12.44
2018-09-28T03:45:41.272Z,12.42
2018-09-28T03:48:09.788Z,12.43
2018-09-28T03:50:38.362Z,12.40
2018-09-28T03:53:06.895Z,12.41
2018-09-28T03:55:35.390Z,12.30
2018-09-28T03:58:03.921Z,12.26
2018-09-28T04:00:32.428Z,12.16
2018-09-28T04:03:00.971Z,12.13
2018-09-28T04:05:29.470Z,12.10
2018-09-28T04:07:57.976Z,12.11
2018-09-28T04:10:26.482Z,12.03
2018-09-28T04:12:54.989Z,12.04
2018-09-28T04:15:23.478Z,12.04
2018-09-28T04:17:52.103Z,12.03
2018-09-28T04:20:20.611Z,12.06
2018-09-28T04:22:49.128Z,12.03
2018-09-28T04:25:17.621Z,12.01
2018-09-28T04:27:46.136Z,12.01
2018-09-28T04:30:14.649Z,11.98
2018-09-28T04:32:43.195Z,12.02
2018-09-28T04:35:11.692Z,12.09
2018-09-28T04:37:40.210Z,12.03
2018-09-28T04:40:08.734Z,12.03
2018-09-28T04:42:37.264Z,11.99
2018-09-28T04:45:05.955Z,12.03
2018-09-28T04:47:34.502Z,11.95
2018-09-28T04:50:02.989Z,11.91
2018-09-28T04:52:31.502Z,11.84
2018-09-28T04:55:00.042Z,11.81
2018-09-28T04:57:28.537Z,11.79
2018-09-28T04:59:57.061Z,11.82
2018-09-28T05:02:25.569Z,11.78
2018-09-28T05:04:54.096Z,11.77
2018-09-28T05:07:22.588Z,11.74
2018-09-28T05:09:51.109Z,11.73
2018-09-28T05:12:19.602Z,11.71
2018-09-28T05:14:48.120Z,11.72
2018-09-28T05:17:16.695Z,11.69
2018-09-28T05:19:45.221Z,11.67
2018-09-28T05:22:13.739Z,11.67
2018-09-28T05:24:42.316Z,11.63
2018-09-28T05:27:10.889Z,11.64
2018-09-28T05:29:39.519Z,11.63
2018-09-28T05:32:08.160Z,11.59
2018-09-28T05:34:36.621Z,11.58
2018-09-28T05:37:05.491Z,11.55
2018-09-28T05:39:34.074Z,11.63
2018-09-28T05:42:02.570Z,11.57
2018-09-28T05:44:31.093Z,11.56
2018-09-28T05:46:59.594Z,11.55
2018-09-28T05:49:28.222Z,11.56
2018-09-28T05:51:56.743Z,11.54
2018-09-28T05:54:25.330Z,11.51
2018-09-28T05:56:53.823Z,11.50
2018-09-28T06:02:00.425Z,11.44
2018-09-28T06:04:34.213Z,11.37
2018-09-28T06:07:02.735Z,11.28
2018-09-28T06:09:31.292Z,11.17
2018-09-28T06:11:59.789Z,11.09
2018-09-28T06:14:28.329Z,11.06
2018-09-28T06:16:56.830Z,11.02
2018-09-28T06:19:25.482Z,11.01
2018-09-28T06:21:53.986Z,10.99
2018-09-28T06:24:22.540Z,11.14
2018-09-28T06:26:51.052Z,11.23
2018-09-28T06:29:19.577Z,11.22
2018-09-28T06:31:48.079Z,11.23
2018-09-28T06:34:16.922Z,11.29
2018-09-28T06:36:45.493Z,11.35
2018-09-28T06:39:14.038Z,11.44
2018-09-28T06:41:42.556Z,11.50
2018-09-28T06:44:11.126Z,11.55
2018-09-28T06:46:39.936Z,11.55
2018-09-28T06:49:08.554Z,11.65
2018-09-28T06:51:37.062Z,11.74
2018-09-28T06:54:05.618Z,11.76
2018-09-28T06:56:34.133Z,11.79
2018-09-28T06:59:02.685Z,11.78
2018-09-28T07:01:31.191Z,11.82
2018-09-28T07:03:59.684Z,11.89
2018-09-28T07:06:28.221Z,11.89
2018-09-28T07:08:56.735Z,11.92
2018-09-28T07:11:25.243Z,11.95
2018-09-28T07:13:53.731Z,12.05
2018-09-28T07:16:22.281Z,12.13
2018-09-28T07:18:50.786Z,12.21
2018-09-28T07:21:19.305Z,12.26
2018-09-28T07:23:47.855Z,12.21
2018-09-28T07:26:16.366Z,12.19
2018-09-28T07:28:44.864Z,12.24
2018-09-28T07:31:13.399Z,12.28
2018-09-28T07:33:41.923Z,12.33
2018-09-28T07:36:10.548Z,12.33
2018-09-28T07:38:39.019Z,12.39
2018-09-28T07:41:07.685Z,12.47
2018-09-28T07:43:36.176Z,12.48
2018-09-28T07:46:04.822Z,12.50
2018-09-28T07:48:33.310Z,12.61
2018-09-28T07:51:01.944Z,12.57
2018-09-28T07:53:30.443Z,12.62
2018-09-28T07:55:59.034Z,12.76
2018-09-28T07:58:27.540Z,12.91
2018-09-28T08:00:56.125Z,12.99
2018-09-28T08:03:28.432Z,12.90
2018-09-28T08:05:58.108Z,12.86
2018-09-28T08:08:26.618Z,12.89
2018-09-28T08:10:55.138Z,12.97
2018-09-28T08:13:23.625Z,13.21
2018-09-28T08:15:52.158Z,13.24
2018-09-28T08:18:22.129Z,13.48
2018-09-28T08:20:50.957Z,13.63
2018-09-28T08:23:19.583Z,13.42
2018-09-28T08:25:48.105Z,13.12
2018-09-28T08:28:16.597Z,13.00
2018-09-28T08:30:45.121Z,13.10
2018-09-28T08:33:13.619Z,13.42
2018-09-28T08:35:42.151Z,13.46
2018-09-28T08:38:10.653Z,13.61
2018-09-28T08:40:39.174Z,13.99
2018-09-28T08:43:07.678Z,14.30
2018-09-28T08:45:36.190Z,14.56
2018-09-28T08:48:04.691Z,14.67
2018-09-28T08:50:33.218Z,14.35
2018-09-28T08:53:01.717Z,14.28
2018-09-28T08:55:30.248Z,13.93
2018-09-28T08:57:58.757Z,13.81
2018-09-28T09:00:27.282Z,14.02
2018-09-28T09:02:55.785Z,14.05
2018-09-28T09:05:24.348Z,13.85
2018-09-28T09:07:52.854Z,13.73
2018-09-28T09:10:21.376Z,13.85
2018-09-28T09:12:49.915Z,14.09
2018-09-28T09:15:18.462Z,14.07
2018-09-28T09:17:47.040Z,14.19
2018-09-28T09:20:15.559Z,14.17
2018-09-28T09:22:44.093Z,13.80
2018-09-28T09:25:12.603Z,13.88
2018-09-28T09:27:41.133Z,14.00
2018-09-28T09:30:09.697Z,14.12
2018-09-28T09:32:38.205Z,14.31
2018-09-28T09:35:06.755Z,14.51
2018-09-28T09:37:35.283Z,14.82
2018-09-28T09:40:03.810Z,14.85
2018-09-28T09:42:32.384Z,14.88
2018-09-28T09:45:00.872Z,14.97
2018-09-28T09:47:29.410Z,14.86
2018-09-28T09:49:58.063Z,14.45
2018-09-28T09:52:26.616Z,14.19
2018-09-28T09:54:55.126Z,14.26
2018-09-28T09:57:23.649Z,14.74
2018-09-28T09:59:52.153Z,15.09
2018-09-28T10:02:26.030Z,15.34
2018-09-28T10:04:54.528Z,15.69
2018-09-28T10:07:23.145Z,15.52
2018-09-28T10:09:51.629Z,15.55
2018-09-28T10:12:20.245Z,15.39
2018-09-28T10:14:48.681Z,15.33
2018-09-28T10:17:17.210Z,15.27
2018-09-28T10:19:45.811Z,15.27
2018-09-28T10:22:14.318Z,15.03
2018-09-28T10:24:42.835Z,15.06
2018-09-28T10:27:11.418Z,15.13
2018-09-28T10:29:40.139Z,15.14
2018-09-28T10:32:08.967Z,15.24
2018-09-28T10:34:37.508Z,15.34
2018-09-28T10:37:06.045Z,15.63
2018-09-28T10:39:34.598Z,15.69
2018-09-28T10:42:03.104Z,15.02
2018-09-28T10:44:31.611Z,14.63
2018-09-28T10:47:00.138Z,15.08
2018-09-28T10:49:28.626Z,14.97
2018-09-28T10:51:57.255Z,15.02
2018-09-28T10:54:25.672Z,15.30
2018-09-28T10:56:54.186Z,15.67
2018-09-28T10:59:22.727Z,15.93
2018-09-28T11:01:51.249Z,15.75
2018-09-28T11:04:19.894Z,15.88
2018-09-28T11:06:48.436Z,15.91
2018-09-28T11:09:16.967Z,15.87
2018-09-28T11:11:45.463Z,15.82
2018-09-28T11:14:13.981Z,15.93
2018-09-28T11:16:42.486Z,15.84
2018-09-28T11:19:11.025Z,15.65
2018-09-28T11:21:39.579Z,15.41
2018-09-28T11:24:08.085Z,15.52
2018-09-28T11:26:36.577Z,15.60
2018-09-28T11:29:05.102Z,15.33
2018-09-28T11:31:33.585Z,15.69
2018-09-28T11:34:02.134Z,15.47
2018-09-28T11:36:30.702Z,15.16
2018-09-28T11:38:59.232Z,15.37
2018-09-28T11:41:27.722Z,15.27
2018-09-28T11:43:56.258Z,15.40
2018-09-28T11:46:24.787Z,15.75
2018-09-28T11:48:53.384Z,15.73
2018-09-28T11:51:21.948Z,15.51
2018-09-28T11:53:50.486Z,15.20
2018-09-28T11:56:19.034Z,15.17
2018-09-28T11:58:47.590Z,15.53
2018-09-28T12:01:16.131Z,16.03
2018-09-28T12:03:44.757Z,16.41
2018-09-28T12:06:13.303Z,16.43
2018-09-28T12:08:41.848Z,15.85
2018-09-28T12:11:10.375Z,15.36
2018-09-28T12:13:38.896Z,15.08
2018-09-28T12:16:07.500Z,15.16
2018-09-28T12:18:36.022Z,15.66
2018-09-28T12:21:04.532Z,16.14
2018-09-28T12:23:33.061Z,16.70
2018-09-28T12:26:01.661Z,16.75
2018-09-28T12:28:30.191Z,17.03
2018-09-28T12:30:58.737Z,17.00
2018-09-28T12:33:27.691Z,16.96
2018-09-28T12:35:56.231Z,16.50
2018-09-28T12:38:24.786Z,16.32
2018-09-28T12:40:53.321Z,15.90
2018-09-28T12:43:35.032Z,15.82
2018-09-28T12:47:15.506Z,16.04
2018-09-28T12:49:44.057Z,16.18
2018-09-28T12:52:12.554Z,16.17
2018-09-28T12:54:41.149Z,16.34
2018-09-28T12:57:09.634Z,16.47
2018-09-28T12:59:38.178Z,16.99
2018-09-28T13:02:06.820Z,17.22
2018-09-28T13:04:35.358Z,16.83
2018-09-28T13:07:03.865Z,16.37
2018-09-28T13:09:32.394Z,15.95
2018-09-28T13:12:00.889Z,15.57
2018-09-28T13:14:29.460Z,15.29
2018-09-28T13:17:00.931Z,15.05
2018-09-28T13:19:29.453Z,14.84
2018-09-28T13:21:57.949Z,14.64
2018-09-28T13:24:26.513Z,14.73
2018-09-28T13:26:54.992Z,14.81
2018-09-28T13:29:23.518Z,15.09
2018-09-28T13:31:52.054Z,15.46
2018-09-28T13:34:27.265Z,15.78
2018-09-28T13:36:55.770Z,15.88
2018-09-28T13:39:24.292Z,15.72
2018-09-28T13:41:52.785Z,15.69
2018-09-28T13:44:21.344Z,16.06
2018-09-28T13:46:49.894Z,16.37
2018-09-28T13:49:18.390Z,16.06
2018-09-28T13:51:46.904Z,15.99
2018-09-28T13:54:15.492Z,15.81
2018-09-28T13:56:44.017Z,15.92
2018-09-28T13:59:12.561Z,15.99
2018-09-28T14:01:41.155Z,15.99
2018-09-28T14:04:09.719Z,16.13
2018-09-28T14:06:38.264Z,16.17
2018-09-28T14:09:08.956Z,15.92
2018-09-28T14:11:37.463Z,15.73
2018-09-28T14:14:06.019Z,15.75
2018-09-28T14:16:34.562Z,15.71
2018-09-28T14:19:03.095Z,15.78
2018-09-28T14:21:31.602Z,15.88
2018-09-28T14:24:00.135Z,16.02
2018-09-28T14:26:28.661Z,16.06
2018-09-28T14:28:57.212Z,16.00
2018-09-28T14:31:25.734Z,16.03
2018-09-28T14:33:54.258Z,15.94
2018-09-28T14:36:23.259Z,15.78
2018-09-28T14:38:51.720Z,15.78
2018-09-28T14:41:20.253Z,15.66
2018-09-28T14:43:48.747Z,15.68
2018-09-28T14:46:17.320Z,15.52
2018-09-28T14:48:45.946Z,15.48
2018-09-28T14:51:14.382Z,15.63
2018-09-28T14:53:42.881Z,15.60
2018-09-28T14:56:11.440Z,15.63
2018-09-28T14:58:39.952Z,15.49
2018-09-28T15:01:08.536Z,15.38
2018-09-28T15:03:37.039Z,15.27
2018-09-28T15:06:05.580Z,15.31
2018-09-28T15:08:34.140Z,15.43
2018-09-28T15:11:02.662Z,15.56
2018-09-28T15:13:31.156Z,15.50
2018-09-28T15:15:59.691Z,15.43
2018-09-28T15:18:28.279Z,15.57
2018-09-28T15:20:56.740Z,15.63
2018-09-28T15:23:25.261Z,15.73
2018-09-28T15:25:53.790Z,15.78
2018-09-28T15:28:22.291Z,15.59
2018-09-28T15:30:50.804Z,15.32
2018-09-28T15:33:19.342Z,15.15
2018-09-28T15:35:47.903Z,15.03
2018-09-28T15:38:17.067Z,14.84
2018-09-28T15:40:45.675Z,14.77
2018-09-28T15:43:14.365Z,14.70
2018-09-28T15:45:42.927Z,14.67
2018-09-28T15:48:11.440Z,14.54
2018-09-28T15:50:40.064Z,14.53
2018-09-28T15:53:08.705Z,14.47
2018-09-28T15:55:37.560Z,14.48
2018-09-28T15:58:06.352Z,14.48
2018-09-28T16:00:35.166Z,14.44
2018-09-28T16:03:03.679Z,14.32
2018-09-28T16:05:32.202Z,14.20
2018-09-28T16:08:00.830Z,14.08
2018-09-28T16:10:29.354Z,13.91
2018-09-28T16:12:57.950Z,13.81
2018-09-28T16:15:26.468Z,13.64
2018-09-28T16:17:55.070Z,13.52
2018-09-28T16:20:23.585Z,13.45
2018-09-28T16:22:52.082Z,13.36
2018-09-28T16:25:20.614Z,13.23
2018-09-28T16:27:49.106Z,13.14
2018-09-28T16:30:17.611Z,13.11
2018-09-28T16:32:46.166Z,13.11
2018-09-28T16:35:15.522Z,13.10
2018-09-28T16:37:44.045Z,13.06
2018-09-28T16:40:12.568Z,13.09
2018-09-28T16:42:41.100Z,12.97
2018-09-28T16:45:09.599Z,12.81
2018-09-28T16:47:38.184Z,12.69
2018-09-28T16:50:06.837Z,12.59
2018-09-28T16:52:35.441Z,12.50
2018-09-28T16:55:03.951Z,12.40
2018-09-28T16:57:32.468Z,12.36
2018-09-28T17:00:00.989Z,12.31
2018-09-28T17:02:29.546Z,12.24
2018-09-28T17:04:58.039Z,12.16
2018-09-28T17:07:26.562Z,12.06
2018-09-28T17:09:55.066Z,11.99
2018-09-28T17:12:23.591Z,12.01
2018-09-28T17:14:52.093Z,12.02
2018-09-28T17:17:20.619Z,11.98
2018-09-28T17:19:49.144Z,11.94
2018-09-28T17:22:17.745Z,11.89
2018-09-28T17:24:46.258Z,11.83
2018-09-28T17:27:14.783Z,11.80
2018-09-28T17:29:43.302Z,11.73
2018-09-28T17:32:11.845Z,11.68
2018-09-28T17:34:40.355Z,11.62
2018-09-28T17:37:08.896Z,11.53
2018-09-28T17:39:37.409Z,11.47
2018-09-28T17:42:05.934Z,11.35
2018-09-28T17:44:37.262Z,11.24
2018-09-28T17:47:05.811Z,11.14
2018-09-28T17:49:34.316Z,11.05
2018-09-28T17:52:02.858Z,10.99
2018-09-28T17:54:31.395Z,10.97
2018-09-28T17:56:59.937Z,10.90
2018-09-28T17:59:28.470Z,10.85
2018-09-28T18:01:57.049Z,10.78
2018-09-28T18:04:25.575Z,10.74
2018-09-28T18:06:54.124Z,10.73
2018-09-28T18:09:22.637Z,10.66
2018-09-28T18:11:51.985Z,10.64
2018-09-28T18:14:20.644Z,10.66
2018-09-28T18:16:49.209Z,10.78
2018-09-28T18:19:17.705Z,10.93
2018-09-28T18:21:46.301Z,10.92
2018-09-28T18:24:14.806Z,10.89
2018-09-28T18:26:43.396Z,10.83
2018-09-28T18:29:11.997Z,10.69
2018-09-28T18:31:40.550Z,10.54
2018-09-28T18:34:09.109Z,10.49
2018-09-28T18:36:37.644Z,10.45
2018-09-28T18:39:08.296Z,10.35
2018-09-28T18:41:36.961Z,10.15
2018-09-28T18:44:05.536Z,9.95
2018-09-28T18:46:34.040Z,9.72
2018-09-28T18:49:02.675Z,9.57
2018-09-28T18:51:31.194Z,9.49
2018-09-28T18:53:59.706Z,9.44
2018-09-28T18:56:28.211Z,9.44
2018-09-28T18:58:56.758Z,9.38
2018-09-28T19:01:25.264Z,9.29
2018-09-28T19:03:53.801Z,9.26
2018-09-28T19:06:22.322Z,9.25
2018-09-28T19:08:50.926Z,9.25
2018-09-28T19:11:19.433Z,9.19
2018-09-28T19:13:47.999Z,9.12
2018-09-28T19:16:16.506Z,9.04
2018-09-28T19:18:45.040Z,8.94
2018-09-28T19:21:13.586Z,8.88
2018-09-28T19:23:45.849Z,8.84
2018-09-28T19:26:14.359Z,8.79
2018-09-28T19:28:42.881Z,8.85
2018-09-28T19:31:11.387Z,8.98
2018-09-28T19:33:39.927Z,8.97
2018-09-28T19:36:08.755Z,9.02
2018-09-28T19:38:37.273Z,9.09
2018-09-28T19:41:05.862Z,9.18
2018-09-28T19:43:34.392Z,9.21
2018-09-28T19:46:03.024Z,9.14
2018-09-28T19:48:31.537Z,9.05
2018-09-28T19:51:00.052Z,8.99
2018-09-28T19:53:28.976Z,8.91
2018-09-28T19:55:57.554Z,8.93
2018-09-28T19:58:26.085Z,8.93
2018-09-28T20:00:54.593Z,8.89
2018-09-28T20:03:23.122Z,8.79
2018-09-28T20:05:51.635Z,8.75
2018-09-28T20:08:20.171Z,8.68
2018-09-28T20:10:48.692Z,8.62
2018-09-28T20:13:17.334Z,8.58
2018-09-28T20:15:45.980Z,8.54
2018-09-28T20:18:14.718Z,8.48
2018-09-28T20:20:43.326Z,8.38
2018-09-28T20:23:11.841Z,8.34
2018-09-28T20:25:40.332Z,8.33
2018-09-28T20:28:09.099Z,8.28
2018-09-28T20:30:37.760Z,8.20
2018-09-28T20:33:06.026Z,8.25
2018-09-28T20:35:34.542Z,8.35
2018-09-28T20:38:03.043Z,8.31
2018-09-28T20:40:31.583Z,8.28
2018-09-28T20:43:00.089Z,8.19
2018-09-28T20:45:28.831Z,8.09
2018-09-28T20:47:57.322Z,8.02
2018-09-28T20:50:25.867Z,7.96
2018-09-28T20:52:54.378Z,7.95
2018-09-28T20:55:22.936Z,7.86
2018-09-28T20:57:51.442Z,7.81
2018-09-28T21:00:19.998Z,7.77
2018-09-28T21:02:48.481Z,7.79
2018-09-28T21:05:17.005Z,7.83
2018-09-28T21:07:45.501Z,7.80
2018-09-28T21:10:14.022Z,7.76
2018-09-28T21:12:42.509Z,7.70
2018-09-28T21:15:11.035Z,7.71
2018-09-28T21:17:39.529Z,7.71
2018-09-28T21:20:08.078Z,7.69
2018-09-28T21:22:36.584Z,7.62
2018-09-28T21:25:05.140Z,7.59
2018-09-28T21:27:33.655Z,7.53
2018-09-28T21:30:02.471Z,7.46
2018-09-28T21:32:30.994Z,7.39
2018-09-28T21:34:59.524Z,7.31
2018-09-28T21:37:28.026Z,7.26
2018-09-28T21:39:56.556Z,7.17
2018-09-28T21:42:25.038Z,7.07
2018-09-28T21:44:53.559Z,6.99
2018-09-28T21:47:22.054Z,6.92
2018-09-28T21:49:50.601Z,6.87
2018-09-28T21:52:19.105Z,6.82
2018-09-28T21:54:47.626Z,6.79
2018-09-28T21:57:16.122Z,6.78
2018-09-28T21:59:44.639Z,6.79
2018-09-28T22:02:13.131Z,6.78
2018-09-28T22:04:41.716Z,6.71
2018-09-28T22:07:10.231Z,6.70
2018-09-28T22:09:38.757Z,6.66
2018-09-28T22:12:07.249Z,6.66
2018-09-28T22:14:35.841Z,6.63
2018-09-28T22:17:04.345Z,6.64
2018-09-28T22:19:32.875Z,6.62
2018-09-28T22:22:01.416Z,6.58
2018-09-28T22:24:29.946Z,6.57
2018-09-28T22:26:58.674Z,6.56
2018-09-28T22:29:27.205Z,6.55
2018-09-28T22:31:55.694Z,6.51
2018-09-28T22:34:24.245Z,6.47
2018-09-28T22:36:52.802Z,6.42
2018-09-28T22:39:21.294Z,6.40
2018-09-28T22:41:49.824Z,6.37
2018-09-28T22:44:18.331Z,6.35
2018-09-28T22:46:46.870Z,6.32
2018-09-28T22:49:15.369Z,6.30
2018-09-28T22:51:43.883Z,6.25
2018-09-28T22:54:12.414Z,6.24
2018-09-28T22:56:40.932Z,6.23
2018-09-28T22:59:09.453Z,6.19
2018-09-28T23:01:39.242Z,6.20
2018-09-28T23:04:08.854Z,6.17
2018-09-28T23:06:37.409Z,6.19
2018-09-28T23:09:06.952Z,6.13
2018-09-28T23:11:35.485Z,6.13
2018-09-28T23:14:04.001Z,6.08
2018-09-28T23:16:32.608Z,6.05
2018-09-28T23:19:01.166Z,6.03
2018-09-28T23:21:30.026Z,5.96
2018-09-28T23:23:58.529Z,5.94
2018-09-28T23:26:27.092Z,5.91
2018-09-28T23:28:55.601Z,5.90
2018-09-28T23:31:24.199Z,5.86
2018-09-28T23:33:52.719Z,5.84
2018-09-28T23:36:21.278Z,5.78
2018-09-28T23:38:49.782Z,5.75
2018-09-28T23:41:18.393Z,5.71
2018-09-28T23:43:46.882Z,5.71
2018-09-28T23:46:15.411Z,5.70
2018-09-28T23:48:43.933Z,5.70
2018-09-28T23:51:12.482Z,5.69
2018-09-28T23:53:40.984Z,5.67
2018-09-28T23:56:09.510Z,5.66
2018-09-28T23:58:38.002Z,5.61
